• Join FlightAware (Why Join?)
  • Login
  • US Flag 
10:37PM EST


 

Airport Tracker/Info


-or-


 

Live Flight TrackerFlight Track Log ✈ SWA34 ✈ 24-Apr-2013 ✈ KORF - KATL

Flight Track Log - Related Links

Times and Time Zones

All times are in EDT time to prevent confusion due to time zone crossing. See the SWA34 flight status page for this flight to view local times or setup timezone preferences in your user account.

Time Position Orientation Groundspeed Altitude Reporting Facility
EDT Latitude Longitude Course Direction KTS MPH feet Rate Location/Type
10:26AM 36.8511 -76.2433 213° Southwest 190 219 3,100  Level Washington Center
10:27AM 36.8133 -76.3003 230° Southwest 248 285 6,200 2,820 Climbing Washington Center
10:29AM 36.7936 -76.4347 260° West 301 346 10,500 2,760 Climbing Washington Center
10:30AM 36.7783 -76.5411 260° West 312 359 13,400 3,000 Climbing Washington Center
10:31AM 36.7647 -76.6550 262° West 324 373 16,600 2,880 Climbing Washington Center
10:32AM 36.7469 -76.7714 259° West 335 386 19,200 2,520 Climbing Washington Center
10:33AM 36.7311 -76.8981 261° West 354 407 21,700 1,860 Climbing Washington Center
10:34AM 36.7067 -77.0247 257° West 373 429 23,000 1,800 Climbing Washington Center
10:35AM 36.6508 -77.1453 240° Southwest 385 443 25,300 1,500 Climbing Washington Center
10:36AM 36.5950 -77.2658 240° Southwest 396 456 26,000 300 Climbing Washington Center
10:37AM 36.5369 -77.3939 241° Southwest 415 478 26,000 240 Level Washington Center
10:38AM 36.4786 -77.5189 240° Southwest 415 478 26,500 1,260 Climbing Washington Center
10:39AM 36.4158 -77.6492 239° Southwest 415 478 28,600 2,220 Climbing Washington Center
10:40AM 36.3533 -77.7711 238° Southwest 415 478 31,000 2,280 Climbing Washington Center
10:41AM 36.2947 -77.8881 238° Southwest 415 478 33,200 1,800 Climbing Washington Center
10:42AM 36.2300 -77.9969 234° Southwest 409 471 34,600 1,380 Climbing Washington Center
10:43AM 36.1367 -78.0764 215° Southwest 396 456 36,000 660 Climbing Washington Center
10:44AM 36.0431 -78.1583 215° Southwest 413 475 36,000  Level Washington Center
10:45AM 35.9453 -78.2397 214° Southwest 423 487 36,000  Level Washington Center
10:46AM 35.8453 -78.3236 214° Southwest 428 493 36,000  Level Washington Center
10:47AM 35.7517 -78.4047 215° Southwest 428 493 36,000  Level Washington Center
10:48AM 35.6558 -78.4858 215° Southwest 428 493 36,000  Level Washington Center
10:49AM 35.5644 -78.5564 212° Southwest 433 498 36,000  Level Washington Center
10:50AM 35.4619 -78.6469 216° Southwest 426 490 36,000  Level Washington Center
10:51AM 35.3744 -78.7175 213° Southwest 426 490 36,000  Level Washington Center
10:52AM 35.2783 -78.8003 215° Southwest 431 496 36,000  Level Washington Center
10:53AM 35.1844 -78.8781 214° Southwest 426 490 36,000  Level Washington Center
10:54AM 35.0906 -78.9553 214° Southwest 426 490 36,000  Level Washington Center
10:55AM 34.9944 -79.0350 214° Southwest 421 484 36,000  Level Washington Center
10:57AM 34.8389 -79.1619 214° Southwest 421 484 36,000  Level Jacksonville Center
10:58AM 34.7433 -79.2419 215° Southwest 421 484 36,000  Level Jacksonville Center
10:59AM 34.6475 -79.3192 214° Southwest 416 479 36,000  Level Jacksonville Center
11:00AM 34.5494 -79.3989 214° Southwest 416 479 36,000  Level Jacksonville Center
11:01AM 34.4536 -79.4756 213° Southwest 416 479 36,000  Level Jacksonville Center
11:02AM 34.3556 -79.5525 213° Southwest 416 479 36,000  Level Jacksonville Center
11:03AM 34.2617 -79.6339 216° Southwest 416 479 36,000  Level Jacksonville Center
11:04AM 34.2142 -79.7336 240° Southwest 388 447 36,000  Level Jacksonville Center
11:05AM 34.1817 -79.8578 252° West 388 447 36,000  Level Jacksonville Center
11:06AM 34.1472 -79.9869 252° West 394 453 36,000  Level Jacksonville Center
11:07AM 34.1125 -80.1111 251° West 400 460 36,000  Level Jacksonville Center
11:08AM 34.0797 -80.2375 253° West 400 460 36,000  Level Jacksonville Center
11:09AM 34.0447 -80.3614 251° West 400 460 36,000  Level Jacksonville Center
11:10AM 34.0094 -80.4850 251° West 400 460 36,000  Level Jacksonville Center
11:11AM 33.9744 -80.6111 252° West 400 460 36,000  Level Jacksonville Center
11:12AM 33.9411 -80.7347 252° West 400 460 36,000  Level Jacksonville Center
11:13AM 33.9075 -80.8556 252° West 395 455 36,000  Level Jacksonville Center
11:14AM 33.8742 -80.9767 252° West 389 448 36,000  Level Jacksonville Center
11:15AM 33.8342 -81.1050 249° West 389 448 36,000  Level Jacksonville Center
11:17AM 33.7550 -81.3828 251° West 386 444 36,000 -300 Level Atlanta Center
11:18AM 33.7219 -81.4989 251° West 386 444 35,100 -540 Descending Atlanta Center
11:19AM 33.6889 -81.6147 251° West 380 437 35,000 -60 Descending Atlanta Center
11:20AM 33.6536 -81.7353 251° West 380 437 35,000  Level Atlanta Center
11:21AM 33.6183 -81.8561 251° West 380 437 35,000 480 Level Atlanta Center
11:22AM 33.5806 -81.9742 249° West 385 443 36,000 -1,200 Climbing Atlanta Center
11:23AM 33.5472 -82.0897 251° West 385 443 32,600 -2,040 Descending Atlanta Center
11:24AM 33.5114 -82.2125 251° West 385 443 32,000 -780 Descending Atlanta Center
11:25AM 33.4736 -82.3403 251° West 395 455 31,100 -960 Descending Atlanta Center
11:26AM 33.4378 -82.4656 251° West 401 461 30,100 -1,020 Descending Atlanta Center
11:27AM 33.3994 -82.5831 249° West 401 461 29,100 -960 Descending Atlanta Center
11:28AM 33.3633 -82.7056 251° West 394 453 28,200 -960 Descending Atlanta Center
11:29AM 33.3250 -82.8331 250° West 394 453 27,200 -1,020 Descending Atlanta Center
11:30AM 33.2822 -82.9678 249° West 394 453 26,200 -1,020 Descending Atlanta Center
11:31AM 33.2458 -83.0900 250° West 394 453 25,200 -1,080 Descending Atlanta Center
11:32AM 33.2069 -83.2072 248° West 389 448 24,100 -1,380 Descending Atlanta Center
11:33AM 33.1681 -83.3267 249° West 389 448 22,500 -2,040 Descending Atlanta Center
11:34AM 33.1353 -83.4336 250° West 367 422 20,100 -2,340 Descending Atlanta Center
11:35AM 33.1003 -83.5453 250° West 367 422 17,900 -2,460 Descending Atlanta Center
11:36AM 33.1111 -83.6519 277° West 353 406 15,200 -2,580 Descending Atlanta Center
11:37AM 33.1500 -83.7167 306° West 346 398 13,400 -1,860 Descending Atlanta TRACON
11:38AM 33.2167 -83.8000 314° West 319 367 12,000 -1,200 Descending Atlanta TRACON
11:39AM 33.2667 -83.8833 306° West 300 345 11,100 -1,320 Descending Atlanta TRACON
11:40AM 33.3167 -83.9667 306° West 301 346 9,400 -1,500 Descending Atlanta TRACON
11:41AM 33.3667 -84.0333 312° West 281 323 8,200 -1,200 Descending Atlanta TRACON
11:42AM 33.4167 -84.1000 312° West 276 318 7,000 -1,260 Descending Atlanta TRACON
11:43AM 33.4833 -84.1500 328° Northwest 279 321 5,700 -1,500 Descending Atlanta TRACON
11:44AM 33.5500 -84.1833 337° Northwest 271 312 4,100 -1,500 Descending Atlanta TRACON
11:45AM 33.6000 -84.2500 312° West 264 304 2,700 -780 Descending Atlanta TRACON
11:46AM 33.6167 -84.3167 287° West 203 234 2,600 -480 Descending Atlanta TRACON
11:47AM 33.6167 -84.3667 270° West 139 160 1,800 -720 Descending Atlanta TRACON
11:48AM 33.6167 -84.4167 270° West 132 152 1,200 -600 Descending Atlanta TRACON
11:50AM 33.6333 -84.4167 64° Northeast  Level FlightAware Approximate
11:57AM 33.6367 -84.4279 64° Northeast  Level Estimated